Time;durP1;ratioP1;P1;durP2;ratioP2;P2;SDS_P1;SDS_P2;PMS_P1;PMS_P2;Temp;Humidity;BMP_temperature;BMP_pressure;BME280_temperature;BME280_humidity;BME280_pressure;Samples;Min_cycle;Max_cycle;Signal;HPM_P1;HPM_P2
2023/08/08 00:00:39;;;;;;;;;;;;;;;;;;;;;
2023/08/08 00:03:38;;;;;;;;;;;;;;;;;;;;;
2023/08/08 00:06:33;;;;;;;;;;;13.30;79.50;;;;;;6247972;22;20283;-94
2023/08/08 00:09:10;;;;;;;;;;;13.30;79.50;;;;;;6168348;23;19983;-95
2023/08/08 00:12:03;;;;;;;;;;;;;;;;;;;;;
2023/08/08 00:17:35;;;;;;;;;;;13.30;79.20;;;;;;6160920;23;20053;-95
2023/08/08 00:20:27;;;;;;;;;;;13.30;79.30;;;;;;6207606;22;20245;-94
2023/08/08 00:26:30;;;;;;;;;;;13.30;79.30;;;;;;6273153;22;19994;-94
2023/08/08 00:28:59;;;;;;;;;;;13.20;79.70;;;;;;6209776;22;19990;-94
2023/08/08 00:31:27;;;;;;;;;;;13.10;79.80;;;;;;6249662;22;20321;-94
2023/08/08 00:33:52;;;;;;;;;;;13.10;79.80;;;;;;6192622;22;19945;-95
2023/08/08 00:36:24;;;;;;;;;;;13.00;80.00;;;;;;6193476;22;20339;-94
2023/08/08 00:38:57;;;;;;;;;;;13.00;80.10;;;;;;6194752;22;19915;-94
2023/08/08 00:41:23;;;;;;;;;;;12.90;80.10;;;;;;6249615;22;19919;-95
2023/08/08 00:43:57;;;;;;;;;;;12.90;80.30;;;;;;6232037;22;19996;-94
2023/08/08 00:49:23;;;;;;;;;;;12.70;80.50;;;;;;6255930;22;19970;-94
2023/08/08 00:51:58;;;;;;;;;;;12.70;80.70;;;;;;6274970;22;20014;-95
2023/08/08 00:54:43;;;;;;;;;;;;;;;;;;;;;
2023/08/08 00:57:23;;;;;;;;;;;12.50;80.70;;;;;;6223019;22;19927;-95
2023/08/08 00:59:55;;;;;;;;;;;12.50;80.80;;;;;;6187639;23;19923;-94
2023/08/08 01:02:34;;;;;;;;;;;12.50;80.70;;;;;;6202275;22;19931;-94
2023/08/08 01:05:06;;;;;;;;;;;12.50;81.00;;;;;;6267314;22;19915;-94
2023/08/08 01:07:37;;;;;;;;;;;12.40;81.10;;;;;;6212380;22;20005;-94
2023/08/08 01:10:17;;;;;;;;;;;12.40;81.10;;;;;;6241730;22;20002;-94
2023/08/08 01:13:16;;;;;;;;;;;;;;;;;;;;;
2023/08/08 01:16:27;;;;;;;;;;;12.30;81.50;;;;;;6150321;23;19920;-92
2023/08/08 01:22:34;;;;;;;;;;;12.30;81.50;;;;;;6245016;22;19923;-92
2023/08/08 01:25:39;;;;;;;;;;;12.30;81.60;;;;;;6224198;22;19921;-92
2023/08/08 01:28:08;;;;;;;;;;;12.30;81.50;;;;;;6196035;22;19919;-92
2023/08/08 01:30:40;;;;;;;;;;;12.30;81.50;;;;;;6247849;22;19915;-92
2023/08/08 01:33:41;;;;;;;;;;;12.30;81.30;;;;;;6196590;22;19915;-92
2023/08/08 01:36:31;;;;;;;;;;;12.30;81.30;;;;;;6273579;22;19915;-92
2023/08/08 01:39:05;;;;;;;;;;;12.30;81.50;;;;;;6222683;22;19930;-92
2023/08/08 01:41:33;;;;;;;;;;;12.30;81.40;;;;;;6223488;22;19915;-93
2023/08/08 01:44:13;;;;;;;;;;;12.40;81.30;;;;;;6235877;22;19999;-92
2023/08/08 01:47:22;;;;;;;;;;;;;;;;;;;;;
2023/08/08 01:53:21;;;;;;;;;;;12.50;81.00;;;;;;6084411;23;19917;-91
2023/08/08 01:56:34;;;;;;;;;;;12.50;80.80;;;;;;6093702;23;19967;-93
2023/08/08 01:59:39;;;;;;;;;;;12.50;80.80;;;;;;6049455;23;20294;-92
2023/08/08 02:03:04;;;;;;;;;;;12.50;80.80;;;;;;6096381;23;19924;-92
2023/08/08 02:05:40;;;;;;;;;;;12.60;80.70;;;;;;6062550;23;20000;-92
2023/08/08 02:18:41;;;;;;;;;;;;;;;;;;;;;
2023/08/08 02:31:57;;;;;;;;;;;12.80;80.40;;;;;;5559437;22;17647317;-92
2023/08/08 02:34:59;;;;;;;;;;;;;;;;;;;;;
2023/08/08 02:37:42;;;;;;;;;;;12.90;80.40;;;;;;6247589;22;20357;-92
2023/08/08 02:40:41;;;;;;;;;;;;;;;;;;;;;
2023/08/08 02:43:22;;;;;;;;;;;12.90;80.30;;;;;;6223172;22;19927;-92
2023/08/08 02:46:32;;;;;;;;;;;12.90;80.30;;;;;;6269990;22;19920;-91
2023/08/08 02:49:37;;;;;;;;;;;;;;;;;;;;;
2023/08/08 02:52:38;;;;;;;;;;;12.90;80.20;;;;;;6168437;23;19928;-92
2023/08/08 02:58:21;;;;;;;;;;;12.90;79.50;;;;;;6150656;23;21151;-91
2023/08/08 03:01:00;;;;;;;;;;;12.90;79.10;;;;;;6169091;23;19955;-91
2023/08/08 03:03:26;;;;;;;;;;;12.90;78.90;;;;;;6178430;23;19920;-91
2023/08/08 03:06:25;;;;;;;;;;;;;;;;;;;;;
2023/08/08 03:09:23;;;;;;;;;;;12.90;78.70;;;;;;6219331;22;19919;-92
2023/08/08 03:12:18;;;;;;;;;;;;;;;;;;;;;
2023/08/08 03:15:04;;;;;;;;;;;12.90;78.50;;;;;;6277491;22;19977;-92
2023/08/08 03:20:55;;;;;;;;;;;12.90;78.60;;;;;;6246636;22;20285;-90
2023/08/08 03:23:23;;;;;;;;;;;12.90;78.60;;;;;;6222166;22;20397;-90
2023/08/08 03:25:58;;;;;;;;;;;12.90;78.60;;;;;;6177963;23;19920;-93
2023/08/08 03:28:34;;;;;;;;;;;12.90;78.50;;;;;;6189260;23;19955;-89
2023/08/08 03:31:18;;;;;;;;;;;;;;;;;;;;;
2023/08/08 03:41:42;;;;;;;;;;;12.90;77.80;;;;;;6073398;23;20233;-91
2023/08/08 03:44:41;;;;;;;;;;;;;;;;;;;;;
2023/08/08 04:01:41;;;;;;;;;;;;;;;;;;;;;
2023/08/08 04:05:14;;;;;;;;;;;12.50;77.20;;;;;;5944674;23;19921;-94
2023/08/08 04:07:50;;;;;;;;;;;12.50;77.20;;;;;;5976645;23;20364;-93
2023/08/08 04:10:18;;;;;;;;;;;12.50;77.30;;;;;;6044090;23;19921;-94
2023/08/08 04:12:47;;;;;;;;;;;12.50;77.50;;;;;;6068814;23;19921;-93
2023/08/08 04:15:25;;;;;;;;;;;12.50;77.70;;;;;;6082999;23;19924;-93
2023/08/08 04:18:11;;;;;;;;;;;12.50;77.80;;;;;;6138876;23;20283;-92
2023/08/08 04:20:51;;;;;;;;;;;12.50;77.90;;;;;;6172687;23;19920;-92
2023/08/08 04:23:25;;;;;;;;;;;12.50;78.10;;;;;;6146831;23;19969;-93
2023/08/08 04:25:54;;;;;;;;;;;12.50;78.20;;;;;;6206304;22;20289;-92
2023/08/08 04:29:05;;;;;;;;;;;;;;;;;;;;;
2023/08/08 04:31:42;;;;;;;;;;;12.50;78.50;;;;;;6267523;22;19919;-93
2023/08/08 04:34:34;;;;;;;;;;;12.50;78.50;;;;;;6227134;22;19923;-93
2023/08/08 04:37:15;;;;;;;;;;;12.50;78.50;;;;;;6268797;22;19989;-93
2023/08/08 04:39:51;;;;;;;;;;;12.50;78.40;;;;;;6248235;22;19919;-94
2023/08/08 04:42:43;;;;;;;;;;;12.50;78.40;;;;;;6230346;22;19954;-94
2023/08/08 04:45:56;;;;;;;;;;;12.60;78.20;;;;;;6269376;22;19918;-93
2023/08/08 04:52:26;;;;;;;;;;;;;;;;;;;;;
2023/08/08 04:55:15;;;;;;;;;;;12.90;78.20;;;;;;6153094;23;19991;-94
2023/08/08 04:57:49;;;;;;;;;;;12.90;78.20;;;;;;6092696;23;20703;-93
2023/08/08 05:01:11;;;;;;;;;;;13.00;78.20;;;;;;6096940;23;19920;-94
2023/08/08 05:03:59;;;;;;;;;;;13.00;78.10;;;;;;6048738;23;19926;-93
2023/08/08 05:07:05;;;;;;;;;;;;;;;;;;;;;
2023/08/08 05:10:00;;;;;;;;;;;13.10;78.10;;;;;;6079960;23;19932;-93
2023/08/08 05:17:07;;;;;;;;;;;;;;;;;;;;;
2023/08/08 05:23:15;;;;;;;;;;;13.30;77.50;;;;;;5874463;23;19922;-94
2023/08/08 05:25:57;;;;;;;;;;;13.30;77.60;;;;;;5983075;23;20369;-93
2023/08/08 05:28:28;;;;;;;;;;;13.50;77.40;;;;;;5989505;23;19933;-95
2023/08/08 05:35:05;;;;;;;;;;;;;;;;;;;;;
2023/08/08 05:44:29;;;;;;;;;;;13.80;76.50;;;;;;5928519;23;19926;-94
2023/08/08 05:47:44;;;;;;;;;;;13.90;76.90;;;;;;6008760;23;20612;-92
2023/08/08 05:50:41;;;;;;;;;;;;;;;;;;;;;
2023/08/08 05:53:38;;;;;;;;;;;14.10;75.90;;;;;;5995500;23;19928;-91
2023/08/08 05:56:39;;;;;;;;;;;14.10;75.70;;;;;;6003398;23;19922;-95
2023/08/08 05:59:47;;;;;;;;;;;;;;;;;;;;;
2023/08/08 06:05:44;;;;;;;;;;;14.30;75.80;;;;;;6036983;23;19929;-95
2023/08/08 06:08:15;;;;;;;;;;;14.40;75.70;;;;;;5997884;23;19945;-92
2023/08/08 06:10:41;;;;;;;;;;;14.50;75.80;;;;;;6016450;23;20278;-91
2023/08/08 06:13:39;;;;;;;;;;;14.50;75.60;;;;;;5999517;23;19928;-95
2023/08/08 06:16:15;;;;;;;;;;;14.50;75.70;;;;;;6126078;23;19927;-93
2023/08/08 06:18:44;;;;;;;;;;;14.60;75.50;;;;;;6148947;23;19925;-90
2023/08/08 06:21:10;;;;;;;;;;;14.70;75.60;;;;;;6143559;23;20003;-95
2023/08/08 06:23:55;;;;;;;;;;;14.80;75.40;;;;;;6183797;23;20374;-93
2023/08/08 06:26:41;;;;;;;;;;;14.80;75.30;;;;;;6195958;22;19919;-93
2023/08/08 06:29:20;;;;;;;;;;;;;;;;;;;;;
2023/08/08 06:31:52;;;;;;;;;;;14.90;74.60;;;;;;6272018;22;19923;-94
2023/08/08 06:34:27;;;;;;;;;;;15.00;73.90;;;;;;6221104;22;19919;-93
2023/08/08 06:36:53;;;;;;;;;;;15.00;73.70;;;;;;6268533;22;20416;-93
2023/08/08 06:39:21;;;;;;;;;;;15.00;73.40;;;;;;6248051;22;19969;-90
2023/08/08 06:41:49;;;;;;;;;;;15.20;73.50;;;;;;6249678;22;19924;-91
2023/08/08 06:44:15;;;;;;;;;;;15.20;73.20;;;;;;6271691;22;19939;-92
2023/08/08 06:49:59;;;;;;;;;;;15.30;73.00;;;;;;6272282;22;20310;-93
2023/08/08 06:52:28;;;;;;;;;;;15.30;72.70;;;;;;6271706;22;19973;-95
2023/08/08 06:55:03;;;;;;;;;;;15.30;72.80;;;;;;6274122;22;19920;-92
2023/08/08 06:57:38;;;;;;;;;;;15.40;72.80;;;;;;6266196;22;19969;-93
2023/08/08 07:00:08;;;;;;;;;;;15.40;72.40;;;;;;6273788;22;20211;-93
2023/08/08 07:02:54;;;;;;;;;;;15.50;72.90;;;;;;6237595;22;19919;-91
2023/08/08 07:05:20;;;;;;;;;;;15.50;72.40;;;;;;6237602;22;19919;-93
2023/08/08 07:07:46;;;;;;;;;;;15.50;71.60;;;;;;6245265;22;19933;-91
2023/08/08 07:10:18;;;;;;;;;;;15.60;71.40;;;;;;6255987;22;19923;-90
2023/08/08 07:12:44;;;;;;;;;;;15.60;71.10;;;;;;6252922;22;19994;-94
2023/08/08 07:15:10;;;;;;;;;;;15.60;71.70;;;;;;6254963;22;19954;-92
2023/08/08 07:17:36;;;;;;;;;;;15.60;71.50;;;;;;6246310;22;19923;-92
2023/08/08 07:20:05;;;;;;;;;;;15.60;71.70;;;;;;6255626;22;19923;-94
2023/08/08 07:22:34;;;;;;;;;;;15.60;71.80;;;;;;6252781;22;19923;-92
2023/08/08 07:25:00;;;;;;;;;;;15.70;70.90;;;;;;6255216;22;19926;-92
2023/08/08 07:27:35;;;;;;;;;;;15.80;70.70;;;;;;6246001;22;19923;-93
2023/08/08 07:30:01;;;;;;;;;;;15.80;71.30;;;;;;6255391;22;20276;-90
2023/08/08 07:32:26;;;;;;;;;;;15.90;70.40;;;;;;6252343;22;19923;-90
2023/08/08 07:34:52;;;;;;;;;;;16.00;71.00;;;;;;6253975;22;19919;-92
2023/08/08 07:37:27;;;;;;;;;;;15.90;70.80;;;;;;6248476;22;19962;-93
2023/08/08 07:39:53;;;;;;;;;;;15.90;70.90;;;;;;6253579;22;19954;-92
2023/08/08 07:42:21;;;;;;;;;;;15.90;70.80;;;;;;6251516;22;20485;-92
2023/08/08 07:44:55;;;;;;;;;;;16.00;71.20;;;;;;6256799;22;19919;-91
2023/08/08 07:47:21;;;;;;;;;;;16.00;71.10;;;;;;6229087;22;20242;-92
2023/08/08 07:49:47;;;;;;;;;;;16.00;71.00;;;;;;6232982;22;19919;-94
2023/08/08 07:52:12;;;;;;;;;;;16.00;71.00;;;;;;6235855;22;19962;-89
2023/08/08 07:54:47;;;;;;;;;;;16.00;70.50;;;;;;6232067;22;19918;-93
2023/08/08 07:57:13;;;;;;;;;;;16.00;71.10;;;;;;6227689;22;19942;-93
2023/08/08 07:59:48;;;;;;;;;;;16.00;71.00;;;;;;6230912;22;19919;-94
2023/08/08 08:02:14;;;;;;;;;;;16.00;70.60;;;;;;6252935;22;19919;-92
2023/08/08 08:04:42;;;;;;;;;;;16.00;69.70;;;;;;6254261;22;20399;-91
2023/08/08 08:07:08;;;;;;;;;;;16.00;70.00;;;;;;6229172;22;19915;-92
2023/08/08 08:09:33;;;;;;;;;;;16.00;70.60;;;;;;6229531;22;19989;-89
2023/08/08 08:12:02;;;;;;;;;;;16.00;70.90;;;;;;6253965;22;19998;-90
2023/08/08 08:14:33;;;;;;;;;;;16.00;70.70;;;;;;6275735;22;20010;-94
2023/08/08 08:17:01;;;;;;;;;;;16.00;70.50;;;;;;6274295;22;19919;-92
2023/08/08 08:19:30;;;;;;;;;;;16.00;70.20;;;;;;6237756;22;20383;-92
2023/08/08 08:21:55;;;;;;;;;;;16.00;70.30;;;;;;6254677;22;20248;-90
2023/08/08 08:24:23;;;;;;;;;;;16.00;70.70;;;;;;6252623;22;19985;-92
2023/08/08 08:26:49;;;;;;;;;;;16.00;70.80;;;;;;6248625;22;19926;-92
2023/08/08 08:29:15;;;;;;;;;;;15.90;70.70;;;;;;6239074;22;19923;-92
2023/08/08 08:31:45;;;;;;;;;;;15.90;71.10;;;;;;6255290;22;19923;-92
2023/08/08 08:34:11;;;;;;;;;;;15.90;71.60;;;;;;6252872;22;19961;-94
2023/08/08 08:36:37;;;;;;;;;;;15.80;71.90;;;;;;6253413;22;19915;-93
2023/08/08 08:39:09;;;;;;;;;;;15.80;71.90;;;;;;6253403;22;20012;-91
2023/08/08 08:41:38;;;;;;;;;;;15.80;71.30;;;;;;6253974;22;20013;-91
2023/08/08 08:44:14;;;;;;;;;;;;;;;;;;;;;
2023/08/08 08:46:44;;;;;;;;;;;16.00;70.40;;;;;;6273884;22;19957;-92
2023/08/08 08:49:48;;;;;;;;;;;;;;;;;;;;;
2023/08/08 08:52:09;;;;;;;;;;;16.30;69.90;;;;;;6273388;22;20338;-94
2023/08/08 08:54:38;;;;;;;;;;;16.30;69.70;;;;;;6254992;22;19984;-93
2023/08/08 08:57:06;;;;;;;;;;;16.20;69.10;;;;;;6234145;22;19915;-93
2023/08/08 08:59:32;;;;;;;;;;;16.20;69.90;;;;;;6225341;22;19923;-92
2023/08/08 09:02:00;;;;;;;;;;;16.40;70.30;;;;;;6252078;22;19924;-93
2023/08/08 09:04:36;;;;;;;;;;;16.40;69.40;;;;;;6199671;22;20418;-93
2023/08/08 09:07:06;;;;;;;;;;;16.40;69.60;;;;;;6250813;22;19923;-93
2023/08/08 09:10:01;;;;;;;;;;;16.40;70.40;;;;;;6253422;22;19922;-94
2023/08/08 09:12:36;;;;;;;;;;;16.20;70.80;;;;;;6252395;22;19964;-94
2023/08/08 09:15:15;;;;;;;;;;;16.00;70.70;;;;;;6282688;22;19926;-92
2023/08/08 09:17:48;;;;;;;;;;;16.00;71.20;;;;;;6212801;23;19923;-93
2023/08/08 09:20:31;;;;;;;;;;;16.10;71.60;;;;;;6163498;23;19924;-93
2023/08/08 09:22:59;;;;;;;;;;;16.20;71.90;;;;;;6160148;23;19966;-92
2023/08/08 09:25:28;;;;;;;;;;;16.40;71.30;;;;;;6162518;23;19926;-93
2023/08/08 09:27:55;;;;;;;;;;;16.40;71.20;;;;;;6141370;23;19926;-90
2023/08/08 09:30:23;;;;;;;;;;;16.50;70.70;;;;;;6209235;22;19918;-92
2023/08/08 09:32:49;;;;;;;;;;;16.80;69.30;;;;;;6257625;22;19919;-92
2023/08/08 09:35:25;;;;;;;;;;;16.90;68.90;;;;;;6281994;22;19919;-94
2023/08/08 09:37:55;;;;;;;;;;;17.00;69.40;;;;;;6249513;22;19938;-95
2023/08/08 09:40:22;;;;;;;;;;;17.20;68.30;;;;;;6254507;22;20296;-90
2023/08/08 09:42:51;;;;;;;;;;;17.30;67.70;;;;;;6219648;22;19927;-91
2023/08/08 09:45:16;;;;;;;;;;;17.40;66.80;;;;;;6239580;22;20008;-91
2023/08/08 09:47:46;;;;;;;;;;;17.40;66.30;;;;;;6244602;22;19919;-92
2023/08/08 09:50:35;;;;;;;;;;;17.40;66.60;;;;;;6254279;22;20280;-94
2023/08/08 09:53:11;;;;;;;;;;;17.30;66.80;;;;;;6251737;22;19976;-93
2023/08/08 09:55:37;;;;;;;;;;;16.90;67.80;;;;;;6279360;22;19990;-91
2023/08/08 09:58:14;;;;;;;;;;;16.40;71.10;;;;;;6242955;22;20487;-93
2023/08/08 10:00:41;;;;;;;;;;;15.80;74.30;;;;;;6219084;22;19926;-94
2023/08/08 10:12:58;;;;;;;;;;;14.50;76.90;;;;;;6253652;22;20074;-95
2023/08/08 10:15:37;;;;;;;;;;;14.50;77.60;;;;;;6218659;22;20062;-94
2023/08/08 10:18:36;;;;;;;;;;;14.50;77.10;;;;;;6244244;22;19972;-92
2023/08/08 10:21:41;;;;;;;;;;;14.50;76.70;;;;;;6227699;22;19923;-94
2023/08/08 10:24:11;;;;;;;;;;;14.60;76.80;;;;;;6147225;23;19924;-92
2023/08/08 10:27:02;;;;;;;;;;;14.60;76.50;;;;;;6160311;22;20045;-95
2023/08/08 10:29:53;;;;;;;;;;;14.80;76.60;;;;;;6229443;22;19919;-91
2023/08/08 10:32:43;;;;;;;;;;;15.10;74.40;;;;;;6276182;22;19948;-92
2023/08/08 10:35:34;;;;;;;;;;;15.50;71.60;;;;;;6231067;22;19977;-91
2023/08/08 10:38:08;;;;;;;;;;;15.80;70.50;;;;;;6216718;22;20322;-92
2023/08/08 10:40:59;;;;;;;;;;;15.90;69.50;;;;;;6247978;22;19930;-93
2023/08/08 10:43:33;;;;;;;;;;;16.00;70.50;;;;;;6208742;22;19926;-92
2023/08/08 10:46:08;;;;;;;;;;;16.20;71.30;;;;;;6248433;22;19926;-96
2023/08/08 10:48:52;;;;;;;;;;;16.30;69.80;;;;;;6240239;22;19926;-93
2023/08/08 10:51:23;;;;;;;;;;;16.40;70.10;;;;;;6249879;22;19919;-90
2023/08/08 10:53:53;;;;;;;;;;;16.60;68.00;;;;;;6205607;23;19919;-90
2023/08/08 10:56:22;;;;;;;;;;;16.70;66.70;;;;;;6220043;22;19954;-91
2023/08/08 10:58:52;;;;;;;;;;;16.70;67.20;;;;;;6242858;22;19919;-92
2023/08/08 11:01:32;;;;;;;;;;;16.60;66.50;;;;;;6249903;22;19923;-91
2023/08/08 11:03:58;;;;;;;;;;;16.50;66.30;;;;;;6233870;22;19923;-91
2023/08/08 11:06:32;;;;;;;;;;;16.50;65.50;;;;;;6247053;22;19927;-92
2023/08/08 11:09:01;;;;;;;;;;;16.60;66.00;;;;;;6244666;22;19945;-92
2023/08/08 11:11:45;;;;;;;;;;;16.60;65.50;;;;;;6250285;22;20314;-92
2023/08/08 11:14:29;;;;;;;;;;;16.70;65.30;;;;;;6236493;22;19919;-93
2023/08/08 11:17:08;;;;;;;;;;;16.80;65.70;;;;;;6243663;22;19919;-91
2023/08/08 11:19:38;;;;;;;;;;;16.70;65.30;;;;;;6223052;22;19924;-91
2023/08/08 11:22:22;;;;;;;;;;;;;;;;;;;;;
2023/08/08 11:25:07;;;;;;;;;;;16.80;65.70;;;;;;6276765;22;19919;-93
2023/08/08 11:27:37;;;;;;;;;;;17.00;64.50;;;;;;6204948;22;19999;-94
2023/08/08 11:30:38;;;;;;;;;;;16.90;63.90;;;;;;6249738;22;19955;-94
2023/08/08 11:33:07;;;;;;;;;;;16.90;64.80;;;;;;6221139;22;19923;-95
2023/08/08 11:35:54;;;;;;;;;;;17.00;64.60;;;;;;6253722;22;19926;-94
2023/08/08 11:38:41;;;;;;;;;;;17.10;65.10;;;;;;6251969;22;19923;-93
2023/08/08 11:41:26;;;;;;;;;;;17.20;65.20;;;;;;6254785;22;19965;-96
2023/08/08 11:43:55;;;;;;;;;;;17.40;64.50;;;;;;6219079;22;19919;-96
2023/08/08 11:46:34;;;;;;;;;;;17.20;64.80;;;;;;6250260;22;19925;-92
2023/08/08 11:49:16;;;;;;;;;;;17.20;65.10;;;;;;6250522;22;19919;-94
2023/08/08 11:51:56;;;;;;;;;;;17.20;65.20;;;;;;6256228;22;19989;-91
2023/08/08 11:54:22;;;;;;;;;;;17.20;63.90;;;;;;6251613;22;19919;-91
2023/08/08 11:56:59;;;;;;;;;;;17.30;64.40;;;;;;6274890;22;20001;-96
2023/08/08 11:59:55;;;;;;;;;;;;;;;;;;;;;
2023/08/08 12:02:30;;;;;;;;;;;17.50;64.50;;;;;;6270027;22;19919;-93
2023/08/08 12:05:16;;;;;;;;;;;17.50;64.60;;;;;;6254432;22;19919;-96
2023/08/08 12:07:45;;;;;;;;;;;17.40;63.90;;;;;;6244230;22;19919;-91
2023/08/08 12:10:27;;;;;;;;;;;17.20;65.20;;;;;;6254086;22;19998;-96
2023/08/08 12:13:05;;;;;;;;;;;17.00;67.40;;;;;;6228799;22;19919;-93
2023/08/08 12:15:54;;;;;;;;;;;16.50;67.80;;;;;;6267667;22;19937;-93
2023/08/08 12:18:20;;;;;;;;;;;16.30;69.90;;;;;;6238254;22;20426;-93
2023/08/08 12:20:46;;;;;;;;;;;16.30;69.50;;;;;;6254248;22;19962;-93
2023/08/08 12:23:12;;;;;;;;;;;16.40;69.50;;;;;;6251746;22;19926;-91
2023/08/08 12:25:45;;;;;;;;;;;16.30;67.60;;;;;;6256563;22;19997;-92
2023/08/08 12:31:55;;;;;;;;;;;16.40;67.90;;;;;;6295375;22;19919;-91
2023/08/08 12:34:21;;;;;;;;;;;16.40;67.60;;;;;;6232972;22;19927;-92
2023/08/08 12:36:50;;;;;;;;;;;16.50;66.90;;;;;;6218333;22;19915;-92
2023/08/08 12:39:39;;;;;;;;;;;16.50;67.30;;;;;;6222806;22;19990;-92
2023/08/08 12:45:40;;;;;;;;;;;16.70;66.60;;;;;;6247303;22;20318;-94
2023/08/08 12:48:06;;;;;;;;;;;16.80;67.20;;;;;;6048286;23;19953;-92
2023/08/08 12:50:32;;;;;;;;;;;17.00;66.10;;;;;;6189140;22;19919;-93
2023/08/08 12:53:00;;;;;;;;;;;17.00;64.60;;;;;;6191487;22;19985;-94
2023/08/08 12:55:26;;;;;;;;;;;16.80;65.60;;;;;;6222190;22;19919;-94
2023/08/08 12:57:55;;;;;;;;;;;16.70;66.20;;;;;;6213376;22;19923;-95
2023/08/08 13:00:27;;;;;;;;;;;16.70;66.80;;;;;;6225833;22;20349;-94
2023/08/08 13:03:20;;;;;;;;;;;16.70;67.00;;;;;;6221209;22;20637;-93
2023/08/08 13:05:46;;;;;;;;;;;16.70;67.20;;;;;;6223424;22;19919;-94
2023/08/08 13:08:13;;;;;;;;;;;16.70;65.80;;;;;;6213707;22;19946;-90
2023/08/08 13:10:42;;;;;;;;;;;16.80;66.20;;;;;;6224153;22;19927;-92
2023/08/08 13:13:10;;;;;;;;;;;17.00;65.50;;;;;;6199541;23;19920;-90
2023/08/08 13:15:37;;;;;;;;;;;17.20;65.10;;;;;;6186667;22;19994;-93
2023/08/08 13:18:03;;;;;;;;;;;17.00;65.10;;;;;;6191828;23;20011;-90
2023/08/08 13:20:32;;;;;;;;;;;16.90;64.90;;;;;;6210580;22;19951;-96
2023/08/08 13:23:38;;;;;;;;;;;16.80;66.20;;;;;;6199134;23;20346;-91
2023/08/08 13:26:17;;;;;;;;;;;16.70;66.60;;;;;;6142763;22;20398;-90
2023/08/08 13:28:43;;;;;;;;;;;16.70;66.90;;;;;;6191006;22;19990;-93
2023/08/08 13:31:18;;;;;;;;;;;;;;;;;;;;;
2023/08/08 13:34:01;;;;;;;;;;;;;;;;;;;;;
2023/08/08 13:36:30;;;;;;;;;;;16.80;64.70;;;;;;6245153;22;19923;-92
2023/08/08 13:38:59;;;;;;;;;;;16.90;64.70;;;;;;6275313;22;19998;-93
2023/08/08 13:41:25;;;;;;;;;;;16.90;65.10;;;;;;6252988;22;19926;-91
2023/08/08 13:43:51;;;;;;;;;;;17.00;64.50;;;;;;6238547;22;19918;-92
2023/08/08 13:46:17;;;;;;;;;;;17.00;64.20;;;;;;6252708;22;20337;-93
2023/08/08 13:48:45;;;;;;;;;;;17.00;64.10;;;;;;6247692;22;19923;-91
2023/08/08 13:51:14;;;;;;;;;;;17.20;64.70;;;;;;6253869;22;19926;-93
2023/08/08 13:53:40;;;;;;;;;;;17.30;64.20;;;;;;6251265;22;19919;-92
2023/08/08 13:56:20;;;;;;;;;;;17.30;63.90;;;;;;6253516;22;19980;-95
2023/08/08 13:58:48;;;;;;;;;;;17.30;64.00;;;;;;6235048;22;19919;-93
2023/08/08 14:01:14;;;;;;;;;;;17.00;63.90;;;;;;6253308;22;19926;-92
2023/08/08 14:03:40;;;;;;;;;;;16.90;65.30;;;;;;6239771;22;19946;-92
2023/08/08 14:06:17;;;;;;;;;;;16.80;66.20;;;;;;6252330;22;19957;-93
2023/08/08 14:08:46;;;;;;;;;;;16.70;65.40;;;;;;6271893;22;19922;-92
2023/08/08 14:11:15;;;;;;;;;;;16.50;65.20;;;;;;6252799;22;20361;-93
2023/08/08 14:13:55;;;;;;;;;;;16.40;65.00;;;;;;6253873;22;19919;-94
2023/08/08 14:16:24;;;;;;;;;;;16.40;65.00;;;;;;6251879;22;20321;-91
2023/08/08 14:19:02;;;;;;;;;;;16.60;64.60;;;;;;6247565;22;19918;-93
2023/08/08 14:21:28;;;;;;;;;;;16.70;65.70;;;;;;6255054;22;20299;-94
2023/08/08 14:24:26;;;;;;;;;;;16.90;65.20;;;;;;6252502;22;19941;-93
2023/08/08 14:27:07;;;;;;;;;;;17.00;64.50;;;;;;6193206;22;19930;-95
2023/08/08 14:29:38;;;;;;;;;;;17.00;65.20;;;;;;6250397;22;19983;-92
2023/08/08 14:35:12;;;;;;;;;;;17.20;64.80;;;;;;6275033;22;20218;-95
2023/08/08 14:38:00;;;;;;;;;;;17.30;64.80;;;;;;6248668;22;19919;-94
2023/08/08 14:40:31;;;;;;;;;;;17.40;64.30;;;;;;6274271;22;19966;-94
2023/08/08 14:43:18;;;;;;;;;;;17.20;63.30;;;;;;6263395;22;20250;-94
2023/08/08 14:46:08;;;;;;;;;;;17.00;63.80;;;;;;6284629;22;19926;-93
2023/08/08 14:48:37;;;;;;;;;;;16.80;63.60;;;;;;6265801;22;19919;-91
2023/08/08 14:51:06;;;;;;;;;;;16.70;63.20;;;;;;6275137;22;20346;-94
2023/08/08 14:53:40;;;;;;;;;;;16.70;62.50;;;;;;6228167;22;19923;-95
2023/08/08 14:56:15;;;;;;;;;;;16.70;63.00;;;;;;6271468;22;19926;-92
2023/08/08 15:01:39;;;;;;;;;;;16.90;63.70;;;;;;6255227;22;19919;-93
2023/08/08 15:04:14;;;;;;;;;;;16.90;62.30;;;;;;6271593;22;19923;-95
2023/08/08 15:09:38;;;;;;;;;;;17.00;61.60;;;;;;6271007;22;19923;-93
2023/08/08 15:12:06;;;;;;;;;;;17.00;62.80;;;;;;6243078;22;19927;-92
2023/08/08 15:14:38;;;;;;;;;;;17.00;63.60;;;;;;6246546;22;19950;-90
2023/08/08 15:17:04;;;;;;;;;;;17.10;62.80;;;;;;6250856;22;20003;-91
2023/08/08 15:19:33;;;;;;;;;;;17.00;63.70;;;;;;6221246;22;20410;-92
2023/08/08 15:22:01;;;;;;;;;;;17.00;63.00;;;;;;6273557;22;19979;-92
2023/08/08 15:24:30;;;;;;;;;;;17.20;63.30;;;;;;6269443;22;19923;-92
2023/08/08 15:26:56;;;;;;;;;;;17.40;62.30;;;;;;6264584;22;19943;-93
2023/08/08 15:29:24;;;;;;;;;;;17.50;62.50;;;;;;6256783;22;20242;-92
2023/08/08 15:31:50;;;;;;;;;;;17.80;62.50;;;;;;6246987;22;20286;-92
2023/08/08 15:34:25;;;;;;;;;;;17.90;62.50;;;;;;6233885;22;19919;-91
2023/08/08 15:36:51;;;;;;;;;;;17.90;61.90;;;;;;6246962;22;19915;-93
2023/08/08 15:39:20;;;;;;;;;;;18.00;62.50;;;;;;6250475;22;20326;-95
2023/08/08 15:41:45;;;;;;;;;;;18.00;60.00;;;;;;6250950;22;19929;-93
2023/08/08 15:44:20;;;;;;;;;;;17.80;60.00;;;;;;6249248;22;19950;-92
2023/08/08 15:46:49;;;;;;;;;;;17.60;58.40;;;;;;6245134;22;19915;-93
2023/08/08 15:49:22;;;;;;;;;;;17.60;59.50;;;;;;6231457;22;19919;-92
2023/08/08 15:52:05;;;;;;;;;;;17.60;59.90;;;;;;6250310;22;20330;-93
2023/08/08 15:54:31;;;;;;;;;;;17.50;59.70;;;;;;6250684;22;20226;-93
2023/08/08 15:57:01;;;;;;;;;;;17.50;60.60;;;;;;6246042;22;19930;-90
2023/08/08 15:59:30;;;;;;;;;;;17.50;60.50;;;;;;6249842;22;19946;-92
2023/08/08 16:02:08;;;;;;;;;;;17.40;61.10;;;;;;6251941;22;20386;-92
2023/08/08 16:04:33;;;;;;;;;;;17.40;61.50;;;;;;6250292;22;20426;-91
2023/08/08 16:06:59;;;;;;;;;;;17.40;61.40;;;;;;6244219;22;19954;-93
2023/08/08 16:09:25;;;;;;;;;;;17.30;62.00;;;;;;6274705;22;20388;-91
2023/08/08 16:11:51;;;;;;;;;;;17.10;61.70;;;;;;6251608;22;19962;-92
2023/08/08 16:14:19;;;;;;;;;;;17.10;61.70;;;;;;6247983;22;20257;-92
2023/08/08 16:16:48;;;;;;;;;;;17.00;62.40;;;;;;6245906;22;20192;-91
2023/08/08 16:19:35;;;;;;;;;;;17.10;61.70;;;;;;6228860;22;19923;-92
2023/08/08 16:22:18;;;;;;;;;;;17.10;61.80;;;;;;6250423;22;19925;-90
2023/08/08 16:28:02;;;;;;;;;;;16.70;62.20;;;;;;6230023;22;20344;-92
2023/08/08 16:30:31;;;;;;;;;;;16.50;63.30;;;;;;6251028;22;19919;-92
2023/08/08 16:32:57;;;;;;;;;;;16.50;63.20;;;;;;6228511;22;19929;-93
2023/08/08 16:35:32;;;;;;;;;;;16.50;62.60;;;;;;6230569;22;19956;-91
2023/08/08 16:38:20;;;;;;;;;;;16.50;62.70;;;;;;6240272;22;19947;-93
2023/08/08 16:40:46;;;;;;;;;;;16.60;63.20;;;;;;6272950;22;19958;-90
2023/08/08 16:43:15;;;;;;;;;;;16.80;63.90;;;;;;6242993;22;19926;-91
2023/08/08 16:49:22;;;;;;;;;;;16.90;62.50;;;;;;6234755;22;19982;-94
2023/08/08 16:52:01;;;;;;;;;;;;;;;;;;;;;
2023/08/08 16:54:55;;;;;;;;;;;16.80;62.60;;;;;;6230175;22;20253;-95
2023/08/08 16:57:24;;;;;;;;;;;16.80;62.50;;;;;;6265758;22;19923;-93
2023/08/08 17:00:00;;;;;;;;;;;16.70;63.20;;;;;;6272852;22;19923;-95
2023/08/08 17:02:40;;;;;;;;;;;16.70;63.10;;;;;;6267631;22;21094;-92
2023/08/08 17:05:09;;;;;;;;;;;16.60;63.50;;;;;;6273894;22;19961;-90
2023/08/08 17:07:44;;;;;;;;;;;16.60;63.20;;;;;;6250046;22;19920;-91
2023/08/08 17:10:13;;;;;;;;;;;16.60;63.20;;;;;;6271305;22;20313;-94
2023/08/08 17:12:38;;;;;;;;;;;16.50;63.00;;;;;;6230912;22;19924;-89
2023/08/08 17:15:10;;;;;;;;;;;16.40;63.10;;;;;;6204759;22;20349;-90
2023/08/08 17:17:36;;;;;;;;;;;16.30;63.70;;;;;;6217579;22;19992;-91
2023/08/08 17:20:20;;;;;;;;;;;16.10;64.40;;;;;;6201765;22;19974;-93
2023/08/08 17:22:51;;;;;;;;;;;16.00;64.50;;;;;;6232807;22;19932;-95
2023/08/08 17:25:26;;;;;;;;;;;16.00;64.30;;;;;;6231595;22;19923;-92
2023/08/08 17:28:00;;;;;;;;;;;15.90;64.20;;;;;;6243476;22;19919;-91
2023/08/08 17:30:32;;;;;;;;;;;15.90;64.50;;;;;;6232409;22;19924;-92
2023/08/08 17:32:58;;;;;;;;;;;15.80;64.20;;;;;;6231536;22;19923;-93
2023/08/08 17:35:57;;;;;;;;;;;;;;;;;;;;;
2023/08/08 17:39:07;;;;;;;;;;;15.80;64.40;;;;;;6248659;22;20370;-91
2023/08/08 17:41:33;;;;;;;;;;;15.80;64.80;;;;;;6244902;22;19927;-91
2023/08/08 17:43:59;;;;;;;;;;;15.80;65.00;;;;;;6271613;22;19994;-90
2023/08/08 17:46:32;;;;;;;;;;;15.80;64.40;;;;;;6244919;22;19950;-93
2023/08/08 17:48:58;;;;;;;;;;;15.60;64.10;;;;;;6225443;22;19969;-90
2023/08/08 17:51:26;;;;;;;;;;;15.60;64.30;;;;;;6226046;22;19927;-92